sensor_id;sensor_type;location;lat;lon;timestamp;pressure;altitude;pressure_sealevel;temperature;humidity
58245;BME280;44550;43.864;25.986;2022-10-30T00:03:12;101805.31;;;14.60;60.22
58245;BME280;44550;43.864;25.986;2022-10-30T00:07:13;101788.66;;;14.57;60.60
58245;BME280;44550;43.864;25.986;2022-10-30T00:11:16;101734.06;;;14.30;60.58
58245;BME280;44550;43.864;25.986;2022-10-30T00:15:17;101785.13;;;14.60;59.66
58245;BME280;44550;43.864;25.986;2022-10-30T00:19:27;101785.09;;;14.51;59.75
58245;BME280;44550;43.864;25.986;2022-10-30T00:23:30;101776.41;;;14.61;59.39
58245;BME280;44550;43.864;25.986;2022-10-30T00:27:31;101775.66;;;14.84;58.55
58245;BME280;44550;43.864;25.986;2022-10-30T00:31:34;101773.06;;;14.93;58.45
58245;BME280;44550;43.864;25.986;2022-10-30T00:35:37;101771.44;;;15.19;57.89
58245;BME280;44550;43.864;25.986;2022-10-30T00:39:39;101764.41;;;15.15;57.69
58245;BME280;44550;43.864;25.986;2022-10-30T00:43:39;101762.63;;;15.16;57.82
58245;BME280;44550;43.864;25.986;2022-10-30T00:47:42;101766.16;;;15.19;57.50
58245;BME280;44550;43.864;25.986;2022-10-30T00:51:49;101729.25;;;15.07;56.80
58245;BME280;44550;43.864;25.986;2022-10-30T00:55:51;101766.25;;;15.33;57.54
58245;BME280;44550;43.864;25.986;2022-10-30T00:59:52;101760.13;;;15.49;57.70
58245;BME280;44550;43.864;25.986;2022-10-30T01:03:56;101758.38;;;15.51;57.12
58245;BME280;44550;43.864;25.986;2022-10-30T01:07:58;101765.31;;;15.23;56.50
58245;BME280;44550;43.864;25.986;2022-10-30T01:11:59;101753.84;;;15.15;56.53
58245;BME280;44550;43.864;25.986;2022-10-30T01:16:12;101752.03;;;15.02;56.97
58245;BME280;44550;43.864;25.986;2022-10-30T01:20:32;101738.66;;;14.61;57.77
58245;BME280;44550;43.864;25.986;2022-10-30T01:24:47;101710.19;;;14.09;59.09
58245;BME280;44550;43.864;25.986;2022-10-30T01:29:05;101703.19;;;14.09;59.36
58245;BME280;44550;43.864;25.986;2022-10-30T01:33:12;101746.19;;;14.16;59.99
58245;BME280;44550;43.864;25.986;2022-10-30T01:37:22;101734.75;;;14.09;60.31
58245;BME280;44550;43.864;25.986;2022-10-30T01:41:26;101732.06;;;14.02;60.58
58245;BME280;44550;43.864;25.986;2022-10-30T01:45:41;101687.97;;;13.73;60.68
58245;BME280;44550;43.864;25.986;2022-10-30T01:50:05;101696.75;;;13.72;60.98
58245;BME280;44550;43.864;25.986;2022-10-30T01:54:18;101690.56;;;13.70;60.94
58245;BME280;44550;43.864;25.986;2022-10-30T01:58:25;101723.41;;;14.15;60.34
58245;BME280;44550;43.864;25.986;2022-10-30T02:02:26;101710.28;;;14.18;60.00
58245;BME280;44550;43.864;25.986;2022-10-30T02:06:27;101716.44;;;14.23;60.08
58245;BME280;44550;43.864;25.986;2022-10-30T02:10:27;101670.75;;;14.09;59.98
58245;BME280;44550;43.864;25.986;2022-10-30T02:14:33;101707.81;;;14.43;59.72
58245;BME280;44550;43.864;25.986;2022-10-30T02:18:35;101689.34;;;14.40;59.42
58245;BME280;44550;43.864;25.986;2022-10-30T02:22:38;101698.03;;;14.26;59.93
58245;BME280;44550;43.864;25.986;2022-10-30T02:26:37;101678.75;;;14.24;59.84
58245;BME280;44550;43.864;25.986;2022-10-30T02:30:38;101706.09;;;14.48;59.80
58245;BME280;44550;43.864;25.986;2022-10-30T02:34:39;101709.66;;;14.51;59.66
58245;BME280;44550;43.864;25.986;2022-10-30T02:38:42;101708.78;;;14.52;59.57
58245;BME280;44550;43.864;25.986;2022-10-30T02:42:42;101712.28;;;14.51;59.75
58245;BME280;44550;43.864;25.986;2022-10-30T02:46:43;101705.28;;;14.55;59.74
58245;BME280;44550;43.864;25.986;2022-10-30T02:50:42;101715.84;;;14.61;59.76
58245;BME280;44550;43.864;25.986;2022-10-30T02:54:47;101689.50;;;14.58;59.45
58245;BME280;44550;43.864;25.986;2022-10-30T02:58:46;101707.09;;;14.67;59.67
58245;BME280;44550;43.864;25.986;2022-10-30T03:02:46;101699.00;;;14.39;60.47
58245;BME280;44550;43.864;25.986;2022-10-30T03:06:46;101673.09;;;13.77;62.52
58245;BME280;44550;43.864;25.986;2022-10-30T03:10:48;101667.75;;;13.61;63.40
58245;BME280;44550;43.864;25.986;2022-10-30T03:14:48;101670.41;;;13.65;63.60
58245;BME280;44550;43.864;25.986;2022-10-30T03:18:48;101668.75;;;13.79;63.51
58245;BME280;44550;43.864;25.986;2022-10-30T03:22:48;101671.38;;;13.76;64.06
58245;BME280;44550;43.864;25.986;2022-10-30T03:26:50;101674.88;;;13.75;64.42
58245;BME280;44550;43.864;25.986;2022-10-30T03:30:49;101665.00;;;13.54;65.25
58245;BME280;44550;43.864;25.986;2022-10-30T03:34:49;101678.31;;;13.68;65.22
58245;BME280;44550;43.864;25.986;2022-10-30T03:38:49;101674.06;;;13.86;64.65
58245;BME280;44550;43.864;25.986;2022-10-30T03:42:51;101669.81;;;14.02;64.02
58245;BME280;44550;43.864;25.986;2022-10-30T03:46:51;101675.09;;;14.07;63.90
58245;BME280;44550;43.864;25.986;2022-10-30T03:50:52;101677.72;;;14.05;63.94
58245;BME280;44550;43.864;25.986;2022-10-30T03:54:51;101676.00;;;14.07;63.88
58245;BME280;44550;43.864;25.986;2022-10-30T03:58:53;101670.78;;;14.15;63.51
58245;BME280;44550;43.864;25.986;2022-10-30T04:02:54;101668.03;;;13.95;64.18
58245;BME280;44550;43.864;25.986;2022-10-30T04:06:55;101665.38;;;13.97;64.23
58245;BME280;44550;43.864;25.986;2022-10-30T04:10:54;101663.47;;;13.76;64.94
58245;BME280;44550;43.864;25.986;2022-10-30T04:14:56;101617.66;;;13.45;65.16
58245;BME280;44550;43.864;25.986;2022-10-30T04:18:56;101658.91;;;13.55;65.65
58245;BME280;44550;43.864;25.986;2022-10-30T04:22:57;101652.81;;;13.60;65.43
58245;BME280;44550;43.864;25.986;2022-10-30T04:26:59;101636.19;;;13.58;65.20
58245;BME280;44550;43.864;25.986;2022-10-30T04:31:01;101633.47;;;13.48;65.18
58245;BME280;44550;43.864;25.986;2022-10-30T04:35:01;101661.72;;;13.75;64.90
58245;BME280;44550;43.864;25.986;2022-10-30T04:39:02;101642.25;;;13.51;65.33
58245;BME280;44550;43.864;25.986;2022-10-30T04:43:03;101653.66;;;13.55;65.48
58245;BME280;44550;43.864;25.986;2022-10-30T04:47:05;101653.53;;;13.43;65.96
58245;BME280;44550;43.864;25.986;2022-10-30T04:51:05;101634.88;;;13.18;66.50
58245;BME280;44550;43.864;25.986;2022-10-30T04:55:07;101634.84;;;13.16;66.68
58245;BME280;44550;43.864;25.986;2022-10-30T04:59:08;101632.50;;;13.39;65.94
58245;BME280;44550;43.864;25.986;2022-10-30T05:03:10;101669.75;;;13.93;64.89
58245;BME280;44550;43.864;25.986;2022-10-30T05:07:16;101679.59;;;14.17;64.01
58245;BME280;44550;43.864;25.986;2022-10-30T05:11:17;101671.00;;;14.49;63.23
58245;BME280;44550;43.864;25.986;2022-10-30T05:15:19;101674.69;;;14.83;62.52
58245;BME280;44550;43.864;25.986;2022-10-30T05:19:23;101676.53;;;15.01;61.70
58245;BME280;44550;43.864;25.986;2022-10-30T05:23:23;101666.88;;;14.94;61.59
58245;BME280;44550;43.864;25.986;2022-10-30T05:27:24;101691.47;;;15.05;60.85
58245;BME280;44550;43.864;25.986;2022-10-30T05:31:24;101644.84;;;14.79;60.42
58245;BME280;44550;43.864;25.986;2022-10-30T05:35:29;101690.59;;;15.01;60.23
58245;BME280;44550;43.864;25.986;2022-10-30T05:39:29;101685.84;;;14.38;62.03
58245;BME280;44550;43.864;25.986;2022-10-30T05:43:32;101712.22;;;14.45;62.85
58245;BME280;44550;43.864;25.986;2022-10-30T05:47:32;101711.28;;;14.39;63.70
58245;BME280;44550;43.864;25.986;2022-10-30T05:51:33;101684.06;;;14.33;64.02
58245;BME280;44550;43.864;25.986;2022-10-30T05:55:40;101700.13;;;14.70;62.62
58245;BME280;44550;43.864;25.986;2022-10-30T05:59:46;101694.06;;;14.96;61.72
58245;BME280;44550;43.864;25.986;2022-10-30T06:03:46;101662.47;;;14.94;61.01
58245;BME280;44550;43.864;25.986;2022-10-30T06:07:48;101660.78;;;15.15;59.85
58245;BME280;44550;43.864;25.986;2022-10-30T06:11:48;101700.44;;;15.74;59.43
58245;BME280;44550;43.864;25.986;2022-10-30T06:15:48;101708.38;;;15.94;58.12
58245;BME280;44550;43.864;25.986;2022-10-30T06:19:48;101687.25;;;16.05;57.87
58245;BME280;44550;43.864;25.986;2022-10-30T06:23:52;101674.00;;;16.39;56.24
58245;BME280;44550;43.864;25.986;2022-10-30T06:27:55;101688.06;;;16.56;55.77
58245;BME280;44550;43.864;25.986;2022-10-30T06:32:07;101681.06;;;16.32;56.68
58245;BME280;44550;43.864;25.986;2022-10-30T06:36:11;101692.47;;;16.59;55.68
58245;BME280;44550;43.864;25.986;2022-10-30T06:40:15;101652.94;;;16.28;55.43
58245;BME280;44550;43.864;25.986;2022-10-30T06:44:16;101672.19;;;16.70;55.24
58245;BME280;44550;43.864;25.986;2022-10-30T06:48:15;101667.72;;;16.92;54.47
58245;BME280;44550;43.864;25.986;2022-10-30T06:52:20;101687.94;;;17.05;54.31
58245;BME280;44550;43.864;25.986;2022-10-30T06:56:23;101665.09;;;16.90;54.77
58245;BME280;44550;43.864;25.986;2022-10-30T07:00:24;101701.88;;;17.27;54.07
58245;BME280;44550;43.864;25.986;2022-10-30T07:04:32;101689.66;;;17.09;54.67
58245;BME280;44550;43.864;25.986;2022-10-30T07:08:33;101666.63;;;17.30;53.80
58245;BME280;44550;43.864;25.986;2022-10-30T07:12:41;101668.25;;;17.55;53.17
58245;BME280;44550;43.864;25.986;2022-10-30T07:16:53;101695.41;;;17.76;53.08
58245;BME280;44550;43.864;25.986;2022-10-30T07:20:55;101686.50;;;17.92;52.63
58245;BME280;44550;43.864;25.986;2022-10-30T07:24:56;101687.28;;;18.05;52.43
58245;BME280;44550;43.864;25.986;2022-10-30T07:29:00;101666.09;;;18.03;52.07
58245;BME280;44550;43.864;25.986;2022-10-30T07:33:08;101693.59;;;17.89;52.46
58245;BME280;44550;43.864;25.986;2022-10-30T07:37:11;101677.81;;;17.76;52.74
58245;BME280;44550;43.864;25.986;2022-10-30T07:41:13;101631.06;;;17.78;52.47
58245;BME280;44550;43.864;25.986;2022-10-30T07:45:17;101684.78;;;17.87;53.25
58245;BME280;44550;43.864;25.986;2022-10-30T07:49:23;101672.06;;;18.25;52.49
58245;BME280;44550;43.864;25.986;2022-10-30T07:53:23;101668.41;;;18.39;52.10
58245;BME280;44550;43.864;25.986;2022-10-30T07:57:26;101633.22;;;18.24;53.10
58245;BME280;44550;43.864;25.986;2022-10-30T08:01:31;101653.56;;;18.22;53.06
58245;BME280;44550;43.864;25.986;2022-10-30T08:05:34;101614.88;;;18.07;53.65
58245;BME280;44550;43.864;25.986;2022-10-30T08:09:34;101630.91;;;18.74;52.72
58245;BME280;44550;43.864;25.986;2022-10-30T08:13:50;101634.59;;;18.62;52.88
58245;BME280;44550;43.864;25.986;2022-10-30T08:19:08;101631.06;;;18.62;53.28
58245;BME280;44550;43.864;25.986;2022-10-30T08:24:09;101625.59;;;18.77;53.21
58245;BME280;44550;43.864;25.986;2022-10-30T08:28:10;101623.09;;;18.63;53.71
58245;BME280;44550;43.864;25.986;2022-10-30T08:32:12;101628.16;;;18.85;53.53
58245;BME280;44550;43.864;25.986;2022-10-30T08:36:16;101630.28;;;19.21;52.93
58245;BME280;44550;43.864;25.986;2022-10-30T08:40:19;101621.34;;;19.29;52.55
58245;BME280;44550;43.864;25.986;2022-10-30T08:44:20;101582.13;;;18.92;53.00
58245;BME280;44550;43.864;25.986;2022-10-30T08:48:31;101616.53;;;19.54;52.22
58245;BME280;44550;43.864;25.986;2022-10-30T08:52:32;101619.53;;;19.86;51.25
58245;BME280;44550;43.864;25.986;2022-10-30T08:56:36;101610.03;;;19.73;51.59
58245;BME280;44550;43.864;25.986;2022-10-30T09:00:36;101572.00;;;19.73;51.20
58245;BME280;44550;43.864;25.986;2022-10-30T09:04:49;101607.88;;;19.95;51.36
58245;BME280;44550;43.864;25.986;2022-10-30T09:08:56;101580.63;;;20.32;50.08
58245;BME280;44550;43.864;25.986;2022-10-30T09:12:58;101542.66;;;20.27;50.00
58245;BME280;44550;43.864;25.986;2022-10-30T09:17:00;101543.69;;;20.63;49.20
58245;BME280;44550;43.864;25.986;2022-10-30T09:21:00;101554.72;;;20.85;48.37
58245;BME280;44550;43.864;25.986;2022-10-30T09:25:05;101567.50;;;20.68;48.93
58245;BME280;44550;43.864;25.986;2022-10-30T09:29:07;101567.16;;;20.41;49.47
58245;BME280;44550;43.864;25.986;2022-10-30T09:33:08;101569.53;;;20.55;49.58
58245;BME280;44550;43.864;25.986;2022-10-30T09:37:10;101576.91;;;20.82;49.31
58245;BME280;44550;43.864;25.986;2022-10-30T09:41:26;101582.28;;;21.18;48.45
58245;BME280;44550;43.864;25.986;2022-10-30T09:45:55;101548.75;;;21.48;46.92
58245;BME280;44550;43.864;25.986;2022-10-30T09:50:12;101568.59;;;21.71;46.88
58245;BME280;44550;43.864;25.986;2022-10-30T09:54:21;101555.25;;;21.72;46.52
58245;BME280;44550;43.864;25.986;2022-10-30T09:58:32;101544.81;;;21.97;46.07
58245;BME280;44550;43.864;25.986;2022-10-30T10:02:49;101515.13;;;21.80;45.57
58245;BME280;44550;43.864;25.986;2022-10-30T10:06:54;101508.00;;;21.80;45.81
58245;BME280;44550;43.864;25.986;2022-10-30T10:10:59;101506.09;;;22.17;45.17
58245;BME280;44550;43.864;25.986;2022-10-30T10:15:08;101529.94;;;22.51;44.53
58245;BME280;44550;43.864;25.986;2022-10-30T10:19:15;101540.34;;;22.60;44.10
58245;BME280;44550;43.864;25.986;2022-10-30T10:23:19;101515.72;;;22.52;44.03
58245;BME280;44550;43.864;25.986;2022-10-30T10:27:43;101507.72;;;22.52;44.04
58245;BME280;44550;43.864;25.986;2022-10-30T10:32:01;101528.34;;;22.75;44.04
58245;BME280;44550;43.864;25.986;2022-10-30T10:36:20;101511.78;;;22.93;43.92
58245;BME280;44550;43.864;25.986;2022-10-30T10:40:32;101507.13;;;23.27;43.14
58245;BME280;44550;43.864;25.986;2022-10-30T10:44:45;101498.41;;;23.21;43.16
58245;BME280;44550;43.864;25.986;2022-10-30T10:49:02;101444.31;;;22.90;43.28
58245;BME280;44550;43.864;25.986;2022-10-30T10:53:09;101456.84;;;23.14;42.98
58245;BME280;44550;43.864;25.986;2022-10-30T10:57:15;101483.47;;;23.42;42.92
58245;BME280;44550;43.864;25.986;2022-10-30T11:01:19;101462.31;;;23.61;42.54
58245;BME280;44550;43.864;25.986;2022-10-30T11:05:30;101468.00;;;23.77;42.28
58245;BME280;44550;43.864;25.986;2022-10-30T11:09:31;101456.22;;;24.06;41.33
58245;BME280;44550;43.864;25.986;2022-10-30T11:13:34;101430.69;;;23.99;41.47
58245;BME280;44550;43.864;25.986;2022-10-30T11:17:40;101424.19;;;23.83;40.74
58245;BME280;44550;43.864;25.986;2022-10-30T11:21:47;101437.25;;;23.65;41.79
58245;BME280;44550;43.864;25.986;2022-10-30T11:25:49;101441.66;;;23.91;41.04
58245;BME280;44550;43.864;25.986;2022-10-30T11:29:50;101434.16;;;24.25;40.44
58245;BME280;44550;43.864;25.986;2022-10-30T11:33:51;101417.03;;;24.74;39.32
58245;BME280;44550;43.864;25.986;2022-10-30T11:38:15;101410.75;;;24.75;39.27
58245;BME280;44550;43.864;25.986;2022-10-30T11:42:17;101401.34;;;24.87;39.35
58245;BME280;44550;43.864;25.986;2022-10-30T11:46:21;101373.56;;;25.12;38.49
58245;BME280;44550;43.864;25.986;2022-10-30T11:50:23;101383.00;;;25.20;37.83
58245;BME280;44550;43.864;25.986;2022-10-30T11:54:26;101371.41;;;25.20;37.75
58245;BME280;44550;43.864;25.986;2022-10-30T11:58:29;101385.72;;;25.19;37.86
58245;BME280;44550;43.864;25.986;2022-10-30T12:02:40;101378.00;;;25.11;38.02
58245;BME280;44550;43.864;25.986;2022-10-30T12:06:43;101386.78;;;25.35;37.38
58245;BME280;44550;43.864;25.986;2022-10-30T12:10:52;101366.47;;;25.31;36.85
58245;BME280;44550;43.864;25.986;2022-10-30T12:14:53;101362.84;;;25.32;36.76
58245;BME280;44550;43.864;25.986;2022-10-30T12:18:58;101380.31;;;25.20;36.96
58245;BME280;44550;43.864;25.986;2022-10-30T12:23:07;101370.19;;;25.47;36.76
58245;BME280;44550;43.864;25.986;2022-10-30T12:27:13;101370.94;;;25.70;36.31
58245;BME280;44550;43.864;25.986;2022-10-30T12:31:23;101339.38;;;25.76;35.52
58245;BME280;44550;43.864;25.986;2022-10-30T12:35:35;101348.69;;;25.49;35.48
58245;BME280;44550;43.864;25.986;2022-10-30T12:39:48;101344.13;;;25.51;35.56
58245;BME280;44550;43.864;25.986;2022-10-30T12:44:01;101357.84;;;25.64;35.60
58245;BME280;44550;43.864;25.986;2022-10-30T12:48:07;101369.03;;;25.72;35.39
58245;BME280;44550;43.864;25.986;2022-10-30T12:52:17;101371.06;;;25.87;34.96
58245;BME280;44550;43.864;25.986;2022-10-30T12:56:21;101331.34;;;25.95;34.49
58245;BME280;44550;43.864;25.986;2022-10-30T13:00:27;101358.19;;;26.32;34.69
58245;BME280;44550;43.864;25.986;2022-10-30T13:04:33;101361.34;;;26.22;34.00
58245;BME280;44550;43.864;25.986;2022-10-30T13:08:37;101353.69;;;26.32;34.22
58245;BME280;44550;43.864;25.986;2022-10-30T13:12:45;101353.63;;;26.53;34.05
58245;BME280;44550;43.864;25.986;2022-10-30T13:16:51;101338.69;;;26.64;33.57
58245;BME280;44550;43.864;25.986;2022-10-30T13:21:15;101353.38;;;26.75;33.31
58245;BME280;44550;43.864;25.986;2022-10-30T13:25:26;101344.41;;;26.93;33.25
58245;BME280;44550;43.864;25.986;2022-10-30T13:29:34;101311.91;;;26.45;33.04
58245;BME280;44550;43.864;25.986;2022-10-30T13:33:41;101356.53;;;26.65;33.59
58245;BME280;44550;43.864;25.986;2022-10-30T13:37:47;101346.44;;;26.34;33.42
58245;BME280;44550;43.864;25.986;2022-10-30T13:42:03;101325.22;;;26.30;33.58
58245;BME280;44550;43.864;25.986;2022-10-30T13:46:26;101349.06;;;26.36;33.11
58245;BME280;44550;43.864;25.986;2022-10-30T13:50:43;101342.88;;;26.16;33.50
58245;BME280;44550;43.864;25.986;2022-10-30T13:54:52;101340.50;;;26.28;33.52
58245;BME280;44550;43.864;25.986;2022-10-30T13:59:04;101307.16;;;26.16;33.30
58245;BME280;44550;43.864;25.986;2022-10-30T14:03:23;101323.16;;;26.35;33.57
58245;BME280;44550;43.864;25.986;2022-10-30T14:07:36;101320.34;;;26.38;33.36
58245;BME280;44550;43.864;25.986;2022-10-30T14:11:47;101332.16;;;26.53;33.27
58245;BME280;44550;43.864;25.986;2022-10-30T14:15:47;101333.09;;;26.52;33.00
58245;BME280;44550;43.864;25.986;2022-10-30T14:20:20;101322.88;;;26.41;33.13
58245;BME280;44550;43.864;25.986;2022-10-30T14:24:37;101328.38;;;26.57;33.45
58245;BME280;44550;43.864;25.986;2022-10-30T14:28:54;101320.38;;;26.55;33.13
58245;BME280;44550;43.864;25.986;2022-10-30T14:39:01;101327.00;;;26.65;33.92
58245;BME280;44550;43.864;25.986;2022-10-30T14:49:32;101321.59;;;26.31;33.26
58245;BME280;44550;43.864;25.986;2022-10-30T14:54:20;101316.91;;;26.17;34.19
58245;BME280;44550;43.864;25.986;2022-10-30T14:58:23;101294.50;;;26.00;35.23
58245;BME280;44550;43.864;25.986;2022-10-30T15:02:32;101286.56;;;25.80;35.68
58245;BME280;44550;43.864;25.986;2022-10-30T15:06:48;101307.47;;;25.53;36.93
58245;BME280;44550;43.864;25.986;2022-10-30T15:11:03;101304.56;;;24.98;37.93
58245;BME280;44550;43.864;25.986;2022-10-30T15:15:15;101273.13;;;24.42;39.23
58245;BME280;44550;43.864;25.986;2022-10-30T15:19:16;101310.06;;;24.30;39.51
58245;BME280;44550;43.864;25.986;2022-10-30T15:23:22;101296.47;;;23.92;40.42
58245;BME280;44550;43.864;25.986;2022-10-30T15:27:24;101307.47;;;23.61;41.34
58245;BME280;44550;43.864;25.986;2022-10-30T15:31:26;101294.69;;;23.23;41.85
58245;BME280;44550;43.864;25.986;2022-10-30T15:35:45;101243.81;;;22.79;42.29
58245;BME280;44550;43.864;25.986;2022-10-30T15:39:47;101319.53;;;23.00;43.25
58245;BME280;44550;43.864;25.986;2022-10-30T15:43:47;101299.75;;;22.80;43.42
58245;BME280;44550;43.864;25.986;2022-10-30T15:47:53;101284.06;;;22.46;44.34
58245;BME280;44550;43.864;25.986;2022-10-30T15:51:57;101292.41;;;22.07;45.29
58245;BME280;44550;43.864;25.986;2022-10-30T15:56:00;101288.34;;;21.95;45.48
58245;BME280;44550;43.864;25.986;2022-10-30T16:00:06;101317.16;;;21.83;46.26
58245;BME280;44550;43.864;25.986;2022-10-30T16:04:18;101315.63;;;21.44;47.23
58245;BME280;44550;43.864;25.986;2022-10-30T16:08:19;101302.63;;;21.32;47.48
58245;BME280;44550;43.864;25.986;2022-10-30T16:12:22;101306.22;;;21.31;47.66
58245;BME280;44550;43.864;25.986;2022-10-30T16:16:26;101259.25;;;20.66;48.40
58245;BME280;44550;43.864;25.986;2022-10-30T16:20:26;101290.88;;;20.41;49.69
58245;BME280;44550;43.864;25.986;2022-10-30T16:24:31;101312.47;;;20.27;50.43
58245;BME280;44550;43.864;25.986;2022-10-30T16:28:36;101303.47;;;20.33;50.85
58245;BME280;44550;43.864;25.986;2022-10-30T16:32:35;101323.84;;;20.34;51.09
58245;BME280;44550;43.864;25.986;2022-10-30T16:36:40;101283.25;;;19.90;51.71
58245;BME280;44550;43.864;25.986;2022-10-30T16:40:41;101321.88;;;19.63;52.69
58245;BME280;44550;43.864;25.986;2022-10-30T16:44:43;101326.06;;;19.31;53.64
58245;BME280;44550;43.864;25.986;2022-10-30T16:48:47;101327.28;;;19.15;54.04
58245;BME280;44550;43.864;25.986;2022-10-30T16:52:50;101303.00;;;18.91;54.61
58245;BME280;44550;43.864;25.986;2022-10-30T16:56:50;101318.41;;;19.16;54.45
58245;BME280;44550;43.864;25.986;2022-10-30T17:00:55;101315.19;;;19.45;53.95
58245;BME280;44550;43.864;25.986;2022-10-30T17:05:08;101328.25;;;19.54;53.40
58245;BME280;44550;43.864;25.986;2022-10-30T17:09:19;101311.06;;;19.74;52.80
58245;BME280;44550;43.864;25.986;2022-10-30T17:13:33;101302.72;;;19.90;52.34
58245;BME280;44550;43.864;25.986;2022-10-30T17:17:37;101322.16;;;20.30;51.56
58245;BME280;44550;43.864;25.986;2022-10-30T17:21:38;101340.38;;;20.45;51.17
58245;BME280;44550;43.864;25.986;2022-10-30T17:25:39;101341.50;;;20.35;51.53
58245;BME280;44550;43.864;25.986;2022-10-30T17:29:45;101350.53;;;20.28;51.50
58245;BME280;44550;43.864;25.986;2022-10-30T17:33:47;101332.13;;;20.20;51.85
58245;BME280;44550;43.864;25.986;2022-10-30T17:38:02;101335.09;;;20.44;51.07
58245;BME280;44550;43.864;25.986;2022-10-30T17:42:03;101347.47;;;20.45;50.98
58245;BME280;44550;43.864;25.986;2022-10-30T17:46:04;101348.59;;;20.34;51.01
58245;BME280;44550;43.864;25.986;2022-10-30T17:50:06;101310.16;;;19.75;51.62
58245;BME280;44550;43.864;25.986;2022-10-30T17:54:09;101345.47;;;19.78;52.36
58245;BME280;44550;43.864;25.986;2022-10-30T17:58:11;101359.94;;;20.04;51.98
58245;BME280;44550;43.864;25.986;2022-10-30T18:02:11;101317.00;;;19.85;51.60
58245;BME280;44550;43.864;25.986;2022-10-30T18:06:18;101357.50;;;19.94;51.86
58245;BME280;44550;43.864;25.986;2022-10-30T18:10:17;101354.53;;;19.68;52.43
58245;BME280;44550;43.864;25.986;2022-10-30T18:14:17;101337.50;;;19.33;53.07
58245;BME280;44550;43.864;25.986;2022-10-30T18:18:18;101331.78;;;19.11;53.89
58245;BME280;44550;43.864;25.986;2022-10-30T18:22:20;101357.63;;;18.98;54.47
58245;BME280;44550;43.864;25.986;2022-10-30T18:26:21;101344.84;;;18.71;54.75
58245;BME280;44550;43.864;25.986;2022-10-30T18:30:22;101339.03;;;18.47;55.33
58245;BME280;44550;43.864;25.986;2022-10-30T18:34:21;101355.63;;;18.57;55.51
58245;BME280;44550;43.864;25.986;2022-10-30T18:38:23;101363.66;;;18.52;55.66
58245;BME280;44550;43.864;25.986;2022-10-30T18:42:25;101370.88;;;18.43;56.40
58245;BME280;44550;43.864;25.986;2022-10-30T18:46:25;101379.03;;;18.29;56.88
58245;BME280;44550;43.864;25.986;2022-10-30T18:50:27;101354.25;;;18.33;56.49
58245;BME280;44550;43.864;25.986;2022-10-30T18:54:29;101387.88;;;18.85;55.92
58245;BME280;44550;43.864;25.986;2022-10-30T18:58:28;101375.41;;;18.90;55.33
58245;BME280;44550;43.864;25.986;2022-10-30T19:02:28;101352.56;;;18.85;54.58
58245;BME280;44550;43.864;25.986;2022-10-30T19:06:29;101387.13;;;18.78;55.27
58245;BME280;44550;43.864;25.986;2022-10-30T19:10:33;101391.84;;;18.57;55.63
58245;BME280;44550;43.864;25.986;2022-10-30T19:14:33;101386.75;;;18.44;56.35
58245;BME280;44550;43.864;25.986;2022-10-30T19:18:32;101385.31;;;18.22;57.02
58245;BME280;44550;43.864;25.986;2022-10-30T19:22:32;101356.22;;;17.52;58.33
58245;BME280;44550;43.864;25.986;2022-10-30T19:26:34;101373.31;;;17.22;59.82
58245;BME280;44550;43.864;25.986;2022-10-30T19:30:33;101374.50;;;16.92;60.80
58245;BME280;44550;43.864;25.986;2022-10-30T19:34:32;101374.53;;;16.89;60.87
58245;BME280;44550;43.864;25.986;2022-10-30T19:38:32;101372.53;;;17.12;59.99
58245;BME280;44550;43.864;25.986;2022-10-30T19:42:34;101383.63;;;17.44;58.93
58245;BME280;44550;43.864;25.986;2022-10-30T19:46:35;101336.91;;;17.44;57.80
58245;BME280;44550;43.864;25.986;2022-10-30T19:50:36;101377.75;;;17.94;56.68
58245;BME280;44550;43.864;25.986;2022-10-30T19:54:36;101376.72;;;18.06;56.14
58245;BME280;44550;43.864;25.986;2022-10-30T19:58:38;101374.69;;;18.25;55.39
58245;BME280;44550;43.864;25.986;2022-10-30T20:02:38;101371.78;;;18.42;54.78
58245;BME280;44550;43.864;25.986;2022-10-30T20:06:38;101360.22;;;18.47;54.35
58245;BME280;44550;43.864;25.986;2022-10-30T20:10:37;101349.38;;;18.63;54.30
58245;BME280;44550;43.864;25.986;2022-10-30T20:14:39;101366.94;;;18.67;54.08
58245;BME280;44550;43.864;25.986;2022-10-30T20:18:39;101369.78;;;18.56;54.51
58245;BME280;44550;43.864;25.986;2022-10-30T20:22:39;101369.84;;;18.53;54.78
58245;BME280;44550;43.864;25.986;2022-10-30T20:26:38;101363.19;;;18.26;54.60
58245;BME280;44550;43.864;25.986;2022-10-30T20:30:40;101361.72;;;18.08;55.34
58245;BME280;44550;43.864;25.986;2022-10-30T20:34:40;101324.00;;;17.92;54.98
58245;BME280;44550;43.864;25.986;2022-10-30T20:38:40;101336.16;;;18.05;54.73
58245;BME280;44550;43.864;25.986;2022-10-30T20:42:40;101331.97;;;17.89;55.60
58245;BME280;44550;43.864;25.986;2022-10-30T20:46:45;101370.53;;;18.07;56.37
58245;BME280;44550;43.864;25.986;2022-10-30T20:50:45;101352.75;;;18.17;56.88
58245;BME280;44550;43.864;25.986;2022-10-30T20:54:47;101362.47;;;18.70;55.60
58245;BME280;44550;43.864;25.986;2022-10-30T20:58:49;101334.44;;;18.59;55.18
58245;BME280;44550;43.864;25.986;2022-10-30T21:02:51;101358.72;;;18.29;56.12
58245;BME280;44550;43.864;25.986;2022-10-30T21:06:50;101345.91;;;18.02;56.80
58245;BME280;44550;43.864;25.986;2022-10-30T21:10:50;101363.31;;;18.18;56.71
58245;BME280;44550;43.864;25.986;2022-10-30T21:14:50;101353.34;;;18.34;56.47
58245;BME280;44550;43.864;25.986;2022-10-30T21:18:52;101380.94;;;18.78;55.65